Time;durP1;ratioP1;P1;durP2;ratioP2;P2;SDS_P1;SDS_P2;PMS_P1;PMS_P2;Temp;Humidity;BMP_temperature;BMP_pressure;BME280_temperature;BME280_humidity;BME280_pressure;Samples;Min_cycle;Max_cycle;Signal;HPM_P1;HPM_P2
2023/11/20 00:00:22;;;;;;;5.67;1.17;;;11.40;99.90;;;;;;5031744;28;20421;-54
2023/11/20 00:02:48;;;;;;;7.00;1.27;;;11.40;99.90;;;;;;5032006;28;20029;-53
2023/11/20 00:05:14;;;;;;;3.73;1.00;;;11.50;99.90;;;;;;5032009;28;20400;-54
2023/11/20 00:07:40;;;;;;;7.93;1.10;;;11.50;99.90;;;;;;5031832;28;20394;-55
2023/11/20 00:10:07;;;;;;;7.97;1.00;;;11.50;99.90;;;;;;5031393;28;20486;-54
2023/11/20 00:12:32;;;;;;;5.13;1.23;;;11.50;99.90;;;;;;5031645;28;20029;-54
2023/11/20 00:14:59;;;;;;;5.60;0.97;;;11.50;99.90;;;;;;5031501;28;20037;-55
2023/11/20 00:17:25;;;;;;;5.20;1.10;;;11.40;99.90;;;;;;5031923;28;20437;-55
2023/11/20 00:19:51;;;;;;;3.87;0.80;;;11.50;99.90;;;;;;5031327;28;20140;-52
2023/11/20 00:22:17;;;;;;;7.10;1.20;;;11.40;99.90;;;;;;5031685;28;20450;-55
2023/11/20 00:24:42;;;;;;;6.17;1.20;;;11.50;99.90;;;;;;5031403;28;20112;-55
2023/11/20 00:27:09;;;;;;;2.97;0.80;;;11.50;99.90;;;;;;5031291;28;20025;-54
2023/11/20 00:29:37;;;;;;;5.13;1.60;;;11.50;99.90;;;;;;5030698;28;20537;-54
2023/11/20 00:32:03;;;;;;;4.00;0.80;;;11.50;99.90;;;;;;5031314;28;20448;-54
2023/11/20 00:34:29;;;;;;;8.73;1.33;;;11.60;99.90;;;;;;5030949;28;20025;-55
2023/11/20 00:36:55;;;;;;;4.55;1.00;;;11.60;99.90;;;;;;5029895;28;20562;-55
2023/11/20 00:39:20;;;;;;;7.97;1.63;;;11.60;99.90;;;;;;5029296;28;20056;-54
2023/11/20 00:41:46;;;;;;;6.03;1.40;;;11.60;99.90;;;;;;5030916;28;20099;-54
2023/11/20 00:44:13;;;;;;;8.30;1.40;;;11.60;99.90;;;;;;5031149;28;20036;-54
2023/11/20 00:46:39;;;;;;;6.77;1.00;;;11.60;99.90;;;;;;5029684;28;20087;-54
2023/11/20 00:49:05;;;;;;;6.53;1.20;;;11.60;99.90;;;;;;5029197;28;20030;-52
2023/11/20 00:51:32;;;;;;;4.60;1.17;;;11.60;99.90;;;;;;5030933;28;20029;-51
2023/11/20 00:53:57;;;;;;;6.43;1.33;;;11.70;99.90;;;;;;5029571;28;20038;-53
2023/11/20 00:56:23;;;;;;;9.37;1.63;;;11.70;99.90;;;;;;5029249;28;20083;-54
2023/11/20 00:58:49;;;;;;;7.27;1.13;;;11.70;99.90;;;;;;5029046;28;20032;-53
2023/11/20 01:01:15;;;;;;;6.73;1.20;;;11.70;99.90;;;;;;5030684;28;20466;-51
2023/11/20 01:03:43;;;;;;;3.07;0.90;;;11.70;99.90;;;;;;5029506;28;20026;-52
2023/11/20 01:06:09;;;;;;;6.30;1.27;;;11.70;99.90;;;;;;5030680;28;20037;-54
2023/11/20 01:08:35;;;;;;;5.30;1.63;;;11.70;99.90;;;;;;5030164;28;20032;-54
2023/11/20 01:11:07;;;;;;;4.05;0.80;;;11.70;99.90;;;;;;5029353;28;20041;-54
2023/11/20 01:13:32;;;;;;;2.50;0.73;;;11.70;99.90;;;;;;5029553;28;20487;-54
2023/11/20 01:15:58;;;;;;;3.43;1.13;;;11.70;99.90;;;;;;5030667;28;20061;-55
2023/11/20 01:18:23;;;;;;;4.60;1.17;;;11.70;99.90;;;;;;5030109;28;20030;-55
2023/11/20 01:20:49;;;;;;;3.33;0.95;;;11.70;99.90;;;;;;5029259;28;20056;-55
2023/11/20 01:23:14;;;;;;;3.70;1.15;;;11.70;99.90;;;;;;5029058;28;20036;-54
2023/11/20 01:25:40;;;;;;;6.63;0.98;;;11.70;99.90;;;;;;5030422;28;20026;-50
2023/11/20 01:28:06;;;;;;;8.30;1.60;;;11.70;99.90;;;;;;5030454;28;20418;-52
2023/11/20 01:30:32;;;;;;;4.33;1.07;;;11.70;99.90;;;;;;5028938;28;20061;-53
2023/11/20 01:32:57;;;;;;;2.93;1.00;;;11.70;99.90;;;;;;5029232;28;20060;-54
2023/11/20 01:35:23;;;;;;;9.07;1.50;;;11.80;99.90;;;;;;5030431;28;20037;-53
2023/11/20 01:37:49;;;;;;;4.32;0.98;;;11.70;99.90;;;;;;5029308;28;20036;-51
2023/11/20 01:40:19;;;;;;;4.37;1.10;;;11.70;99.90;;;;;;5029945;28;20471;-51
2023/11/20 01:42:44;;;;;;;8.35;1.08;;;11.80;99.90;;;;;;5029201;28;20437;-54
2023/11/20 01:45:10;;;;;;;6.05;0.88;;;11.70;99.90;;;;;;5029106;28;20037;-50
2023/11/20 01:47:37;;;;;;;3.93;0.90;;;11.80;99.90;;;;;;5029005;28;20167;-55
2023/11/20 01:50:09;;;;;;;4.80;0.87;;;11.80;99.90;;;;;;5029938;28;20470;-51
2023/11/20 01:52:39;;;;;;;2.77;0.70;;;11.80;99.90;;;;;;5028974;28;20029;-55
2023/11/20 01:55:05;;;;;;;6.57;1.17;;;11.70;99.90;;;;;;5028905;28;20052;-55
2023/11/20 01:57:32;;;;;;;4.27;0.90;;;11.70;99.90;;;;;;5029451;28;20085;-52
2023/11/20 01:59:57;;;;;;;6.80;1.30;;;11.80;99.90;;;;;;5028670;28;20021;-54
2023/11/20 02:02:23;;;;;;;4.20;1.00;;;11.70;99.90;;;;;;5029069;28;20398;-55
2023/11/20 02:04:55;;;;;;;4.35;1.10;;;11.70;99.90;;;;;;5028963;28;20033;-55
2023/11/20 02:07:21;;;;;;;4.93;1.20;;;11.70;99.90;;;;;;5028963;28;20029;-54
2023/11/20 02:09:47;;;;;;;4.72;0.80;;;11.70;99.90;;;;;;5033149;28;20049;-51
2023/11/20 02:12:13;;;;;;;6.37;1.47;;;11.70;99.90;;;;;;5033889;28;20040;-52
2023/11/20 02:14:38;;;;;;;7.05;1.38;;;11.70;99.90;;;;;;5033883;28;20025;-54
2023/11/20 02:17:04;;;;;;;4.80;1.20;;;11.70;99.90;;;;;;5033747;28;20549;-55
2023/11/20 02:19:30;;;;;;;4.77;1.40;;;11.70;99.90;;;;;;5033302;28;20033;-50
2023/11/20 02:21:55;;;;;;;4.07;1.37;;;11.70;99.90;;;;;;5032401;28;20406;-55
2023/11/20 02:24:22;;;;;;;4.80;1.03;;;11.70;99.90;;;;;;5032254;28;20040;-54
2023/11/20 02:26:53;;;;;;;6.57;1.02;;;11.70;99.90;;;;;;5032352;28;20029;-52
2023/11/20 02:29:33;;;;;;;6.47;1.37;;;11.60;99.90;;;;;;5033192;28;20052;-51
2023/11/20 02:31:59;;;;;;;3.57;1.10;;;11.60;99.90;;;;;;5032051;28;20033;-50
2023/11/20 02:34:25;;;;;;;7.30;1.53;;;11.70;99.90;;;;;;5032200;28;20029;-50
2023/11/20 02:36:50;;;;;;;6.60;1.83;;;11.70;99.90;;;;;;5033884;28;20030;-55
2023/11/20 02:39:16;;;;;;;4.97;1.70;;;11.70;99.90;;;;;;5031537;28;20036;-53
2023/11/20 02:41:43;;;;;;;7.60;1.27;;;11.60;99.90;;;;;;5032137;28;20390;-54
2023/11/20 02:44:08;;;;;;;6.70;1.60;;;11.60;99.90;;;;;;5033782;28;20060;-53
2023/11/20 02:46:34;;;;;;;5.87;1.50;;;11.60;99.90;;;;;;5033305;28;20080;-55
2023/11/20 02:49:00;;;;;;;11.57;2.43;;;11.60;99.90;;;;;;5032840;28;20040;-53
2023/11/20 02:51:27;;;;;;;6.20;1.50;;;11.50;99.90;;;;;;5033397;28;20082;-51
2023/11/20 02:53:53;;;;;;;14.37;2.73;;;11.50;99.90;;;;;;5033467;28;20037;-55
2023/11/20 02:56:19;;;;;;;5.87;1.80;;;11.50;99.90;;;;;;5033354;28;20036;-53
2023/11/20 02:58:44;;;;;;;9.07;1.40;;;11.50;99.90;;;;;;5032743;28;20090;-53
2023/11/20 03:01:11;;;;;;;7.50;1.83;;;11.40;99.90;;;;;;5031702;28;20038;-53
2023/11/20 03:03:37;;;;;;;5.67;1.40;;;11.40;99.90;;;;;;5031608;28;20025;-54
2023/11/20 03:06:03;;;;;;;4.00;1.50;;;11.40;99.90;;;;;;5031619;28;20034;-54
2023/11/20 03:08:29;;;;;;;10.10;2.30;;;11.40;99.90;;;;;;5032446;28;20065;-54
2023/11/20 03:10:54;;;;;;;5.47;1.50;;;11.40;99.90;;;;;;5031724;28;20056;-53
2023/11/20 03:13:23;;;;;;;7.10;1.90;;;11.40;99.90;;;;;;5031439;28;20039;-53
2023/11/20 03:15:52;;;;;;;10.83;1.97;;;11.40;99.90;;;;;;5032501;28;20029;-53
2023/11/20 03:18:18;;;;;;;8.97;1.83;;;11.40;99.90;;;;;;5031184;28;20057;-55
2023/11/20 03:20:44;;;;;;;7.10;1.60;;;11.40;99.90;;;;;;5032867;28;20037;-53
2023/11/20 03:23:13;;;;;;;6.50;1.83;;;11.40;99.90;;;;;;5031874;28;20079;-54
2023/11/20 03:25:39;;;;;;;10.00;1.75;;;11.40;99.90;;;;;;5032441;28;20038;-55
2023/11/20 03:28:04;;;;;;;5.67;1.90;;;11.40;99.90;;;;;;5031047;28;20073;-53
2023/11/20 03:30:32;;;;;;;5.87;2.30;;;11.50;99.90;;;;;;5031877;28;20052;-52
2023/11/20 03:32:58;;;;;;;16.43;2.20;;;11.50;99.90;;;;;;5030980;28;20044;-55
2023/11/20 03:35:24;;;;;;;9.40;2.47;;;11.50;99.90;;;;;;5030929;28;20128;-55
2023/11/20 03:37:49;;;;;;;9.43;2.37;;;11.50;99.90;;;;;;5030967;28;20261;-54
2023/11/20 03:40:15;;;;;;;8.67;1.63;;;11.60;99.90;;;;;;5031726;28;20033;-54
2023/11/20 03:42:41;;;;;;;5.23;1.63;;;11.60;99.90;;;;;;5032405;28;20049;-53
2023/11/20 03:45:06;;;;;;;6.17;1.50;;;11.60;99.90;;;;;;5031021;28;20045;-54
2023/11/20 03:47:33;;;;;;;11.67;2.37;;;11.60;99.90;;;;;;5031889;28;20061;-55
2023/11/20 03:49:59;;;;;;;9.13;1.80;;;11.60;99.90;;;;;;5031774;28;20430;-54
2023/11/20 03:52:26;;;;;;;9.50;1.80;;;11.60;99.90;;;;;;5032053;28;20033;-55
2023/11/20 03:54:51;;;;;;;8.10;1.40;;;11.60;99.90;;;;;;5031785;28;20486;-54
2023/11/20 03:57:17;;;;;;;9.97;1.80;;;11.50;99.90;;;;;;5031890;28;20025;-55
2023/11/20 03:59:43;;;;;;;8.10;1.70;;;11.40;99.90;;;;;;5030085;28;20071;-55
2023/11/20 04:02:08;;;;;;;8.47;2.00;;;11.30;99.90;;;;;;5031787;28;20108;-55
2023/11/20 04:04:34;;;;;;;4.10;1.80;;;11.30;99.90;;;;;;5031827;28;20479;-55
2023/11/20 04:06:59;;;;;;;5.97;1.67;;;11.30;99.90;;;;;;5031665;28;20045;-54
2023/11/20 04:09:25;;;;;;;6.93;1.87;;;11.30;99.90;;;;;;5029795;28;20559;-54
2023/11/20 04:11:51;;;;;;;8.98;2.00;;;11.30;99.90;;;;;;5030659;28;20530;-55
2023/11/20 04:14:18;;;;;;;9.40;2.37;;;11.40;99.90;;;;;;5031754;28;20128;-53
2023/11/20 04:16:45;;;;;;;9.10;1.57;;;11.40;99.90;;;;;;5030364;28;20116;-53
2023/11/20 04:19:13;;;;;;;7.07;2.43;;;11.40;99.90;;;;;;5030124;28;20433;-51
2023/11/20 04:21:39;;;;;;;5.10;1.40;;;11.40;99.90;;;;;;5030322;28;20385;-55
2023/11/20 04:24:05;;;;;;;7.53;1.53;;;11.40;99.90;;;;;;5030322;28;20470;-55
2023/11/20 04:26:31;;;;;;;10.27;1.77;;;11.40;99.90;;;;;;5031750;28;20099;-55
2023/11/20 04:28:58;;;;;;;4.40;1.30;;;11.40;99.90;;;;;;5030966;28;20490;-55
2023/11/20 04:31:24;;;;;;;8.00;1.27;;;11.40;99.90;;;;;;5030944;28;20076;-55
2023/11/20 04:33:50;;;;;;;8.63;1.60;;;11.30;99.90;;;;;;5031546;28;20490;-54
2023/11/20 04:36:16;;;;;;;8.73;1.77;;;11.30;99.90;;;;;;5031238;28;20033;-56
2023/11/20 04:38:42;;;;;;;6.30;1.77;;;11.30;99.90;;;;;;5030770;28;20052;-53
2023/11/20 04:41:08;;;;;;;4.43;1.57;;;11.30;99.90;;;;;;5031270;28;20095;-56
2023/11/20 04:43:34;;;;;;;6.20;1.40;;;11.30;99.90;;;;;;5031686;28;20033;-52
2023/11/20 04:45:59;;;;;;;8.57;1.20;;;11.30;99.90;;;;;;5031277;28;20430;-56
2023/11/20 04:48:25;;;;;;;3.37;1.13;;;11.40;99.90;;;;;;5030900;28;20393;-51
2023/11/20 04:50:52;;;;;;;8.63;1.73;;;11.40;99.90;;;;;;5031001;28;20033;-52
2023/11/20 04:53:20;;;;;;;6.22;1.40;;;11.30;99.90;;;;;;5031207;28;20136;-54
2023/11/20 04:55:46;;;;;;;6.47;1.43;;;11.30;99.90;;;;;;5031055;28;20037;-54
2023/11/20 04:58:11;;;;;;;10.10;1.27;;;11.30;99.90;;;;;;5030928;28;20037;-55
2023/11/20 05:00:37;;;;;;;3.60;1.10;;;11.30;99.90;;;;;;5030589;28;20022;-55
2023/11/20 05:03:03;;;;;;;5.13;1.20;;;11.30;99.90;;;;;;5031130;28;20037;-56
2023/11/20 05:05:28;;;;;;;7.20;1.20;;;11.30;99.90;;;;;;5030718;28;20057;-56
2023/11/20 05:07:54;;;;;;;4.87;1.33;;;11.30;99.90;;;;;;5030008;28;20041;-56
2023/11/20 05:10:20;;;;;;;7.50;1.20;;;11.30;99.90;;;;;;5030948;28;20225;-51
2023/11/20 05:12:45;;;;;;;8.57;1.83;;;11.30;99.90;;;;;;5031483;28;20118;-54
2023/11/20 05:15:11;;;;;;;7.27;1.43;;;11.30;99.90;;;;;;5030969;28;20445;-56
2023/11/20 05:17:36;;;;;;;3.20;0.90;;;11.30;99.90;;;;;;5029619;28;20061;-53
2023/11/20 05:20:03;;;;;;;8.20;1.63;;;11.30;99.90;;;;;;5030493;28;20494;-52
2023/11/20 05:22:28;;;;;;;3.70;0.90;;;11.30;99.90;;;;;;5030740;28;20029;-54
2023/11/20 05:24:54;;;;;;;5.30;1.30;;;11.30;99.90;;;;;;5030498;28;20375;-53
2023/11/20 05:27:21;;;;;;;8.93;1.30;;;11.30;99.90;;;;;;5029349;28;20068;-55
2023/11/20 05:29:46;;;;;;;3.33;1.00;;;11.30;99.90;;;;;;5030093;28;20116;-55
2023/11/20 05:32:12;;;;;;;5.87;1.20;;;11.30;99.90;;;;;;5030750;28;20135;-55
2023/11/20 05:34:38;;;;;;;3.80;0.97;;;11.30;99.90;;;;;;5030518;28;20068;-54
2023/11/20 05:37:04;;;;;;;2.20;1.00;;;11.30;99.90;;;;;;5030605;28;20110;-52
2023/11/20 05:39:30;;;;;;;4.33;1.13;;;11.30;99.90;;;;;;5030032;28;20036;-50
2023/11/20 05:41:56;;;;;;;8.33;2.00;;;11.30;99.90;;;;;;5030491;28;20498;-50
2023/11/20 05:44:22;;;;;;;7.63;1.97;;;11.30;99.90;;;;;;5033498;28;20026;-53
2023/11/20 05:46:47;;;;;;;6.67;1.43;;;11.30;99.90;;;;;;5034485;28;20295;-54
2023/11/20 05:49:13;;;;;;;6.07;1.50;;;11.30;99.90;;;;;;5033948;28;20029;-54
2023/11/20 05:51:38;;;;;;;3.63;1.67;;;11.30;99.90;;;;;;5033256;28;20026;-52
2023/11/20 05:54:08;;;;;;;9.57;2.07;;;11.30;99.90;;;;;;5034509;28;20026;-51
2023/11/20 05:56:37;;;;;;;4.67;1.57;;;11.30;99.90;;;;;;5034437;28;20501;-53
2023/11/20 05:59:03;;;;;;;11.50;1.98;;;11.30;99.90;;;;;;5033935;28;20048;-53
2023/11/20 06:01:36;;;;;;;5.03;1.73;;;11.30;99.90;;;;;;5034151;28;20025;-51
2023/11/20 06:04:02;;;;;;;7.87;1.70;;;11.20;99.90;;;;;;5034105;28;20041;-53
2023/11/20 06:06:28;;;;;;;8.27;3.23;;;11.20;99.90;;;;;;5034146;28;20029;-51
2023/11/20 06:08:53;;;;;;;9.10;2.37;;;11.20;99.90;;;;;;5033416;28;20029;-54
2023/11/20 06:11:23;;;;;;;7.57;2.00;;;11.20;99.90;;;;;;5034124;28;20116;-53
2023/11/20 06:13:49;;;;;;;9.07;2.80;;;11.30;99.90;;;;;;5033933;28;20041;-54
2023/11/20 06:16:15;;;;;;;7.13;2.17;;;11.30;99.90;;;;;;5033873;28;20037;-55
2023/11/20 06:18:41;;;;;;;5.07;1.80;;;11.30;99.90;;;;;;5033260;28;20041;-52
2023/11/20 06:21:07;;;;;;;10.00;1.90;;;11.30;99.90;;;;;;5033836;28;20260;-55
2023/11/20 06:23:34;;;;;;;6.73;1.80;;;11.30;99.90;;;;;;5033724;28;20035;-53
2023/11/20 06:25:59;;;;;;;7.33;2.10;;;11.20;99.90;;;;;;5032508;28;20389;-57
2023/11/20 06:28:25;;;;;;;11.57;2.00;;;11.20;99.90;;;;;;5033088;28;20030;-53
2023/11/20 06:30:51;;;;;;;8.70;2.07;;;11.30;99.90;;;;;;5033361;28;20060;-52
2023/11/20 06:33:17;;;;;;;11.87;2.67;;;11.30;99.90;;;;;;5033539;28;20044;-55
2023/11/20 06:35:43;;;;;;;10.03;2.30;;;11.30;99.90;;;;;;5033612;28;20120;-53
2023/11/20 06:38:08;;;;;;;8.83;1.63;;;11.30;99.90;;;;;;5033160;28;20581;-54
2023/11/20 06:40:36;;;;;;;9.27;1.70;;;11.30;99.90;;;;;;5031599;28;20025;-54
2023/11/20 06:43:04;;;;;;;9.80;2.63;;;11.30;99.90;;;;;;5033234;28;20056;-53
2023/11/20 06:45:30;;;;;;;10.47;1.90;;;11.30;99.90;;;;;;5032044;28;20509;-51
2023/11/20 06:47:56;;;;;;;10.23;1.97;;;11.20;99.90;;;;;;5033358;28;20441;-56
2023/11/20 06:50:22;;;;;;;7.70;2.60;;;11.20;99.90;;;;;;5032711;28;20026;-55
2023/11/20 06:52:48;;;;;;;7.73;1.60;;;11.20;99.90;;;;;;5033195;28;20387;-54
2023/11/20 06:55:14;;;;;;;5.93;2.10;;;11.20;99.90;;;;;;5032595;28;20033;-54
2023/11/20 06:57:40;;;;;;;5.17;1.70;;;11.20;99.90;;;;;;5033083;28;20025;-55
2023/11/20 07:00:07;;;;;;;8.70;2.03;;;11.10;99.90;;;;;;5032582;28;20285;-50
2023/11/20 07:02:32;;;;;;;6.93;1.80;;;11.20;99.90;;;;;;5033138;28;20427;-54
2023/11/20 07:04:58;;;;;;;12.63;1.90;;;11.20;99.90;;;;;;5032890;28;20068;-52
2023/11/20 07:07:25;;;;;;;10.53;1.83;;;11.20;99.90;;;;;;5033078;28;20036;-53
2023/11/20 07:09:50;;;;;;;13.50;2.00;;;11.20;99.90;;;;;;5032443;28;20057;-53
2023/11/20 07:12:17;;;;;;;7.60;1.30;;;11.10;99.90;;;;;;5032762;28;20457;-55
2023/11/20 07:14:43;;;;;;;11.97;2.23;;;11.10;99.90;;;;;;5032647;28;20401;-55
2023/11/20 07:17:09;;;;;;;9.10;2.10;;;11.10;99.90;;;;;;5032693;28;20034;-54
2023/11/20 07:19:35;;;;;;;17.00;3.07;;;11.10;99.90;;;;;;5032010;28;20076;-52
2023/11/20 07:22:00;;;;;;;13.17;3.27;;;11.10;99.90;;;;;;5032661;28;20120;-54
2023/11/20 07:24:27;;;;;;;7.93;1.63;;;11.20;99.90;;;;;;5032702;28;20156;-53
2023/11/20 07:26:54;;;;;;;6.60;1.67;;;11.10;99.90;;;;;;5032732;28;20045;-55
2023/11/20 07:29:19;;;;;;;17.47;2.60;;;11.10;99.90;;;;;;5032348;28;20034;-53
2023/11/20 07:31:45;;;;;;;10.57;1.87;;;11.10;99.90;;;;;;5032273;28;20440;-53
2023/11/20 07:34:11;;;;;;;13.07;1.40;;;11.10;99.90;;;;;;5032066;28;20025;-51
2023/11/20 07:36:36;;;;;;;7.07;1.53;;;11.10;99.90;;;;;;5032448;28;20099;-55
2023/11/20 07:39:03;;;;;;;12.00;1.70;;;11.10;99.90;;;;;;5031865;28;20409;-54
2023/11/20 07:41:29;;;;;;;11.00;1.63;;;11.00;99.90;;;;;;5032150;28;20389;-51
2023/11/20 07:43:54;;;;;;;9.37;2.00;;;11.10;99.90;;;;;;5032167;28;20030;-51
2023/11/20 07:46:20;;;;;;;8.37;1.53;;;11.00;99.90;;;;;;5032137;28;20045;-54
2023/11/20 07:48:46;;;;;;;8.87;1.80;;;11.10;99.90;;;;;;5031575;28;20033;-54
2023/11/20 07:51:11;;;;;;;9.33;1.83;;;11.00;99.90;;;;;;5032152;28;20028;-51
2023/11/20 07:53:37;;;;;;;5.63;1.43;;;11.00;99.90;;;;;;5032224;28;20470;-55
2023/11/20 07:56:03;;;;;;;9.00;2.20;;;11.00;99.90;;;;;;5031799;28;20482;-54
2023/11/20 07:58:29;;;;;;;8.33;1.60;;;11.00;99.90;;;;;;5031567;28;20029;-54
2023/11/20 08:00:55;;;;;;;9.00;1.87;;;11.00;99.90;;;;;;5031822;28;20026;-54
2023/11/20 08:03:20;;;;;;;9.93;2.43;;;11.10;99.90;;;;;;5031801;28;20390;-55
2023/11/20 08:05:46;;;;;;;12.87;1.80;;;11.10;99.90;;;;;;5031002;28;20037;-54
2023/11/20 08:08:12;;;;;;;5.57;1.50;;;11.10;99.90;;;;;;5030452;28;20125;-53
2023/11/20 08:10:38;;;;;;;6.93;1.70;;;11.00;99.90;;;;;;5031323;28;20033;-53
2023/11/20 08:13:04;;;;;;;10.20;2.53;;;11.00;99.90;;;;;;5031802;28;20052;-54
2023/11/20 08:15:31;;;;;;;11.67;2.20;;;11.00;99.90;;;;;;5032056;28;20398;-53
2023/11/20 08:17:56;;;;;;;9.30;1.63;;;11.00;99.90;;;;;;5031640;28;20478;-53
2023/11/20 08:20:22;;;;;;;13.33;2.20;;;11.00;99.90;;;;;;5031253;28;20029;-52
2023/11/20 08:22:48;;;;;;;13.10;1.80;;;11.00;99.90;;;;;;5032063;28;20033;-54
2023/11/20 08:25:14;;;;;;;8.90;1.37;;;10.90;99.90;;;;;;5031645;28;20037;-55
2023/11/20 08:27:41;;;;;;;9.93;1.80;;;10.90;99.90;;;;;;5031575;28;20040;-53
2023/11/20 08:30:11;;;;;;;11.77;2.20;;;11.00;99.90;;;;;;5030995;28;20033;-55
2023/11/20 08:32:37;;;;;;;8.23;2.23;;;11.00;99.90;;;;;;5031223;28;20095;-55
2023/11/20 08:35:03;;;;;;;7.17;1.50;;;11.10;99.90;;;;;;5031126;28;20124;-53
2023/11/20 08:37:29;;;;;;;10.63;1.87;;;11.10;99.90;;;;;;5031302;28;20163;-56
2023/11/20 08:39:54;;;;;;;5.57;1.27;;;11.10;99.90;;;;;;5032088;28;20501;-56
2023/11/20 08:42:22;;;;;;;11.67;1.90;;;11.20;99.90;;;;;;5031426;28;20028;-55
2023/11/20 08:44:49;;;;;;;6.40;1.97;;;11.20;99.90;;;;;;5030126;28;20037;-56
2023/11/20 08:47:15;;;;;;;12.37;1.37;;;11.30;99.90;;;;;;5031395;28;20034;-54
2023/11/20 08:49:42;;;;;;;8.97;1.73;;;11.30;99.90;;;;;;5030677;28;20490;-53
2023/11/20 08:52:08;;;;;;;7.60;2.03;;;11.30;99.90;;;;;;5031045;28;20029;-56
2023/11/20 08:54:33;;;;;;;10.93;2.07;;;11.50;99.90;;;;;;5030950;28;20125;-55
2023/11/20 08:56:59;;;;;;;11.13;2.70;;;11.50;99.90;;;;;;5030971;28;20037;-55
2023/11/20 08:59:25;;;;;;;12.90;3.40;;;11.60;99.90;;;;;;5030390;28;20119;-54
2023/11/20 09:01:50;;;;;;;13.30;2.80;;;11.70;99.90;;;;;;5030911;28;20035;-55
2023/11/20 09:04:16;;;;;;;14.85;2.70;;;11.80;99.90;;;;;;5030834;28;20505;-55
2023/11/20 09:06:43;;;;;;;11.23;2.00;;;11.80;99.90;;;;;;5030785;28;20040;-53
2023/11/20 09:09:08;;;;;;;12.45;1.83;;;11.90;99.90;;;;;;5030297;28;20045;-54
2023/11/20 09:11:34;;;;;;;12.65;1.98;;;11.90;99.90;;;;;;5030798;28;20045;-54
2023/11/20 09:14:00;;;;;;;9.38;1.65;;;11.90;99.90;;;;;;5030485;28;20044;-54
2023/11/20 09:16:25;;;;;;;16.23;1.67;;;11.90;99.90;;;;;;5030505;28;20045;-53
2023/11/20 09:18:51;;;;;;;12.45;2.13;;;11.90;99.90;;;;;;5036530;28;20033;-54
2023/11/20 09:21:17;;;;;;;9.52;1.70;;;11.90;99.90;;;;;;5037278;28;20037;-55
2023/11/20 09:23:45;;;;;;;11.90;2.10;;;11.90;99.90;;;;;;5037199;28;20497;-53
2023/11/20 09:26:11;;;;;;;5.38;1.10;;;11.80;99.90;;;;;;5037188;28;20029;-55
2023/11/20 09:28:40;;;;;;;7.20;1.10;;;11.70;99.90;;;;;;5036762;28;20041;-53
2023/11/20 09:31:07;;;;;;;7.55;1.60;;;11.80;99.90;;;;;;5037356;28;20041;-53
2023/11/20 09:33:34;;;;;;;11.45;2.00;;;11.90;99.90;;;;;;5035426;28;20350;-52
2023/11/20 09:36:00;;;;;;;7.63;1.48;;;11.90;99.90;;;;;;5035994;28;20033;-53
2023/11/20 09:38:26;;;;;;;8.90;1.67;;;11.90;99.90;;;;;;5036362;28;20558;-55
2023/11/20 09:40:52;;;;;;;10.05;1.60;;;12.00;99.90;;;;;;5036972;28;20030;-54
2023/11/20 09:43:21;;;;;;;10.30;1.80;;;12.00;99.90;;;;;;5036808;28;20041;-53
2023/11/20 09:45:54;;;;;;;10.13;1.88;;;12.00;99.90;;;;;;5037092;28;20098;-53
2023/11/20 09:48:22;;;;;;;15.13;2.58;;;11.90;99.90;;;;;;5036661;28;20033;-52
2023/11/20 09:50:49;;;;;;;8.52;2.03;;;11.90;99.90;;;;;;5036738;28;20036;-54
2023/11/20 09:53:14;;;;;;;9.07;1.58;;;11.80;99.90;;;;;;5036988;28;20448;-54
2023/11/20 09:55:40;;;;;;;12.15;1.50;;;11.80;99.90;;;;;;5036834;28;20038;-51
2023/11/20 09:58:06;;;;;;;6.13;1.25;;;11.70;99.90;;;;;;5036539;28;20033;-54
2023/11/20 10:00:32;;;;;;;9.68;1.80;;;11.70;99.90;;;;;;5036793;28;20383;-52
2023/11/20 10:02:59;;;;;;;7.63;1.38;;;11.60;99.90;;;;;;5036774;28;20029;-55
2023/11/20 10:05:31;;;;;;;6.50;1.60;;;11.60;99.90;;;;;;5036789;28;20486;-53
2023/11/20 10:08:00;;;;;;;8.90;2.25;;;11.60;99.90;;;;;;5036949;28;20041;-55
2023/11/20 10:10:29;;;;;;;11.43;1.40;;;11.60;99.90;;;;;;5034988;28;20041;-54
2023/11/20 10:12:57;;;;;;;10.15;2.33;;;11.60;99.90;;;;;;5036805;28;20049;-55
2023/11/20 10:15:24;;;;;;;9.27;1.65;;;11.60;99.90;;;;;;5036804;28;20040;-52
2023/11/20 10:17:49;;;;;;;8.10;1.98;;;11.60;99.90;;;;;;5036582;28;20029;-52
2023/11/20 10:20:15;;;;;;;7.63;2.23;;;11.70;99.90;;;;;;5036264;28;20132;-50
2023/11/20 10:22:41;;;;;;;8.27;1.60;;;11.70;99.90;;;;;;5035471;28;20037;-54
2023/11/20 10:25:09;;;;;;;9.52;1.85;;;11.70;99.90;;;;;;5036466;28;20037;-55
2023/11/20 10:27:35;;;;;;;10.38;1.90;;;11.80;99.90;;;;;;5036662;28;20108;-55
2023/11/20 10:30:00;;;;;;;3.42;1.17;;;11.70;99.90;;;;;;5032800;28;20133;-52
2023/11/20 10:32:27;;;;;;;4.28;1.50;;;11.80;99.90;;;;;;5032368;28;20034;-52
2023/11/20 10:35:12;;;;;;;7.85;2.17;;;12.00;99.90;;;;;;5033813;28;20441;-55
2023/11/20 10:37:52;;;;;;;5.90;1.73;;;12.10;99.90;;;;;;5033327;28;20037;-54
2023/11/20 10:40:18;;;;;;;6.10;1.02;;;12.10;99.90;;;;;;5032929;28;20037;-55
2023/11/20 10:42:44;;;;;;;5.25;1.13;;;12.00;99.90;;;;;;5032496;28;20037;-55
2023/11/20 10:45:11;;;;;;;3.72;1.05;;;12.00;99.90;;;;;;5032486;28;20037;-54
2023/11/20 10:47:37;;;;;;;4.70;1.20;;;11.80;99.90;;;;;;5032733;28;20104;-55
2023/11/20 10:50:03;;;;;;;5.75;1.20;;;11.70;99.90;;;;;;5032209;28;20053;-51
2023/11/20 10:52:31;;;;;;;5.65;1.35;;;11.60;99.90;;;;;;5032932;28;20388;-53
2023/11/20 10:55:01;;;;;;;6.47;1.42;;;11.50;99.90;;;;;;5032799;28;20038;-53
2023/11/20 10:57:31;;;;;;;5.70;1.67;;;11.40;99.90;;;;;;5032921;28;20601;-54
2023/11/20 10:59:57;;;;;;;8.57;1.38;;;11.40;99.90;;;;;;5032568;28;20048;-55
2023/11/20 11:02:25;;;;;;;5.20;1.63;;;11.40;99.90;;;;;;5032479;28;20060;-54
2023/11/20 11:04:52;;;;;;;6.73;1.30;;;11.40;99.90;;;;;;5032830;28;20394;-55
2023/11/20 11:07:22;;;;;;;5.77;1.60;;;11.40;99.90;;;;;;5031600;28;20034;-54
2023/11/20 11:09:48;;;;;;;9.47;1.40;;;11.40;99.90;;;;;;5032230;28;20022;-55
2023/11/20 11:12:16;;;;;;;4.17;1.00;;;11.40;99.90;;;;;;5032674;28;20022;-54
2023/11/20 11:14:41;;;;;;;5.10;1.10;;;11.40;99.90;;;;;;5032390;28;20041;-55
2023/11/20 11:17:13;;;;;;;7.10;1.50;;;11.40;99.90;;;;;;5032671;28;20037;-54
2023/11/20 11:19:48;;;;;;;6.50;1.30;;;11.50;99.90;;;;;;5032204;28;20458;-55
2023/11/20 11:22:29;;;;;;;4.03;1.57;;;11.50;99.90;;;;;;5031162;28;20030;-54
2023/11/20 11:25:00;;;;;;;6.07;0.97;;;11.60;99.90;;;;;;5032488;28;20029;-54
2023/11/20 11:27:39;;;;;;;5.97;1.47;;;11.60;99.90;;;;;;5032277;28;20048;-52
2023/11/20 11:30:07;;;;;;;;;;;11.70;99.90;;;;;;5032680;28;20471;-55
2023/11/20 11:32:38;;;;;;;4.13;0.90;;;11.90;99.90;;;;;;5032549;28;20004;-52
2023/11/20 11:35:36;;;;;;;7.50;1.17;;;11.90;99.90;;;;;;5032215;28;20036;-50
2023/11/20 11:38:20;;;;;;;4.63;1.30;;;12.00;99.90;;;;;;5032347;28;20124;-53
2023/11/20 11:40:51;;;;;;;3.28;1.05;;;12.20;99.90;;;;;;5031018;28;20368;-52
2023/11/20 11:43:40;;;;;;;4.95;0.95;;;12.40;99.90;;;;;;5032511;28;20482;-51
2023/11/20 11:46:07;;;;;;;2.53;0.80;;;12.70;99.90;;;;;;5031659;28;20454;-53
2023/11/20 11:48:36;;;;;;;4.93;0.95;;;13.00;99.90;;;;;;5031789;28;20124;-55
2023/11/20 11:51:03;;;;;;;3.83;0.75;;;13.00;99.90;;;;;;5032233;28;20037;-55
2023/11/20 11:53:29;;;;;;;4.53;1.13;;;12.90;99.90;;;;;;5032231;28;20395;-55
2023/11/20 11:56:02;;;;;;;5.82;1.00;;;12.80;99.90;;;;;;5031741;28;20037;-56
2023/11/20 11:58:32;;;;;;;3.05;0.93;;;12.60;99.90;;;;;;5031525;28;20021;-55
2023/11/20 12:01:17;;;;;;;3.03;0.60;;;12.40;99.90;;;;;;5031789;28;20043;-52
2023/11/20 12:03:46;;;;;;;3.92;0.98;;;12.20;99.90;;;;;;5031851;28;20147;-55
2023/11/20 12:06:13;;;;;;;4.00;1.23;;;12.20;99.90;;;;;;5031755;28;20113;-53
2023/11/20 12:08:39;;;;;;;4.45;1.00;;;12.10;99.90;;;;;;5031330;28;20410;-54
2023/11/20 12:11:05;;;;;;;5.05;1.10;;;12.00;99.90;;;;;;5031627;28;20649;-52
2023/11/20 12:13:31;;;;;;;3.45;0.80;;;12.00;99.90;;;;;;5031470;28;20026;-55
2023/11/20 12:16:03;;;;;;;5.88;1.35;;;11.90;99.90;;;;;;5031620;28;20034;-55
2023/11/20 12:18:33;;;;;;;4.93;0.70;;;11.90;99.90;;;;;;5029770;28;20036;-53
2023/11/20 12:21:07;;;;;;;3.58;0.70;;;12.00;99.90;;;;;;5031502;28;20109;-51
2023/11/20 12:23:33;;;;;;;3.80;0.70;;;12.00;99.90;;;;;;5031521;28;20030;-55
2023/11/20 12:26:01;;;;;;;2.75;0.55;;;11.90;99.90;;;;;;5031137;28;20048;-53
2023/11/20 12:28:36;;;;;;;2.67;0.90;;;12.00;99.90;;;;;;5030883;28;20435;-54
2023/11/20 12:31:06;;;;;;;3.13;0.63;;;12.00;99.90;;;;;;5031305;28;20083;-55
2023/11/20 12:33:33;;;;;;;5.53;1.13;;;12.00;99.90;;;;;;5031393;28;20030;-54
2023/11/20 12:36:00;;;;;;;2.60;1.23;;;11.90;99.90;;;;;;5031458;28;20029;-54
2023/11/20 12:38:46;;;;;;;4.10;0.82;;;11.90;99.90;;;;;;5030537;28;20037;-55
2023/11/20 12:41:12;;;;;;;1.98;0.82;;;12.70;99.90;;;;;;5031007;28;20179;-54
2023/11/20 12:43:37;;;;;;;3.17;0.80;;;13.20;99.90;;;;;;5031063;28;20116;-56